createdAt,value
2018-08-07T00:00:08.684Z,937.15
2018-08-07T00:01:08.689Z,937.15
2018-08-07T00:02:08.705Z,937.17
2018-08-07T00:03:08.698Z,937.10
2018-08-07T00:04:08.701Z,937.06
2018-08-07T00:05:08.706Z,937.04
2018-08-07T00:06:08.711Z,937.03
2018-08-07T00:07:08.715Z,937.02
2018-08-07T00:08:08.719Z,936.98
2018-08-07T00:09:08.724Z,937.01
2018-08-07T00:10:08.727Z,936.98
2018-08-07T00:11:08.733Z,937.03
2018-08-07T00:12:08.736Z,937.01
2018-08-07T00:13:08.740Z,937.02
2018-08-07T00:14:08.744Z,937.00
2018-08-07T00:15:08.749Z,937.01
2018-08-07T00:16:08.754Z,937.02
2018-08-07T00:17:08.758Z,937.04
2018-08-07T00:18:08.766Z,937.02
2018-08-07T00:19:08.765Z,937.01
2018-08-07T00:20:08.771Z,937.01
2018-08-07T00:21:08.774Z,937.04
2018-08-07T00:22:08.781Z,937.01
2018-08-07T00:23:08.782Z,937.02
2018-08-07T00:24:08.788Z,937.00
2018-08-07T00:25:08.792Z,937.05
2018-08-07T00:26:08.795Z,937.05
2018-08-07T00:27:08.799Z,937.04
2018-08-07T00:28:08.803Z,937.06
2018-08-07T00:29:08.810Z,937.08
2018-08-07T00:30:08.812Z,937.11
2018-08-07T00:31:08.821Z,937.10
2018-08-07T00:32:08.821Z,937.07
2018-08-07T00:33:08.826Z,937.05
2018-08-07T00:34:08.830Z,937.06
2018-08-07T00:35:08.834Z,937.04
2018-08-07T00:36:08.837Z,937.06
2018-08-07T00:37:08.846Z,937.04
2018-08-07T00:38:08.845Z,937.02
2018-08-07T00:39:08.857Z,937.06
2018-08-07T00:40:08.856Z,937.04
2018-08-07T00:41:08.858Z,937.04
2018-08-07T00:42:08.862Z,937.05
2018-08-07T00:43:08.867Z,937.02
2018-08-07T00:44:08.872Z,937.01
2018-08-07T00:45:08.875Z,937.04
2018-08-07T00:46:08.878Z,937.04
2018-08-07T00:47:08.883Z,937.08
2018-08-07T00:48:08.888Z,937.04
2018-08-07T00:49:08.891Z,937.03
2018-08-07T00:50:08.922Z,937.05
2018-08-07T00:51:08.899Z,937.01
2018-08-07T00:52:08.903Z,937.03
2018-08-07T00:53:08.909Z,937.04
2018-08-07T00:54:08.912Z,937.05
2018-08-07T00:55:08.917Z,936.98
2018-08-07T00:56:08.920Z,937.00
2018-08-07T00:57:08.925Z,937.03
2018-08-07T00:58:08.929Z,936.99
2018-08-07T00:59:08.933Z,937.01
2018-08-07T01:00:08.936Z,937.05
2018-08-07T01:01:08.943Z,937.01
2018-08-07T01:02:08.945Z,936.99
2018-08-07T01:03:08.952Z,937.06
2018-08-07T01:04:08.953Z,937.00
2018-08-07T01:05:08.958Z,937.03
2018-08-07T01:06:08.960Z,937.06
2018-08-07T01:07:08.966Z,937.04
2018-08-07T01:08:08.970Z,937.07
2018-08-07T01:09:08.973Z,937.08
2018-08-07T01:10:08.977Z,937.08
2018-08-07T01:11:08.981Z,937.11
2018-08-07T01:12:08.985Z,937.12
2018-08-07T01:13:08.989Z,937.18
2018-08-07T01:14:08.993Z,937.17
2018-08-07T01:15:08.997Z,937.18
2018-08-07T01:16:09.001Z,937.22
2018-08-07T01:17:09.005Z,937.20
2018-08-07T01:18:09.010Z,937.20
2018-08-07T01:19:09.012Z,937.22
2018-08-07T01:20:09.018Z,937.20
2018-08-07T01:21:09.024Z,937.23
2018-08-07T01:22:09.025Z,937.19
2018-08-07T01:23:09.028Z,937.18
2018-08-07T01:24:09.032Z,937.14
2018-08-07T01:25:09.038Z,937.17
2018-08-07T01:26:09.041Z,937.14
2018-08-07T01:27:09.045Z,937.12
2018-08-07T01:28:09.049Z,937.14
2018-08-07T01:29:09.054Z,937.11
2018-08-07T01:30:09.056Z,937.17
2018-08-07T01:31:09.059Z,937.14
2018-08-07T01:32:09.064Z,937.13
2018-08-07T01:33:09.069Z,937.12
2018-08-07T01:34:09.123Z,937.13
2018-08-07T01:35:09.075Z,937.07
2018-08-07T01:36:09.080Z,937.06
2018-08-07T01:37:09.085Z,937.02
2018-08-07T01:38:09.088Z,937.08
2018-08-07T01:39:09.093Z,937.04
2018-08-07T01:40:09.096Z,937.07
2018-08-07T01:41:09.099Z,937.10
2018-08-07T01:42:09.102Z,937.13
2018-08-07T01:43:09.107Z,937.13
2018-08-07T01:44:09.111Z,937.11
2018-08-07T01:45:09.116Z,937.15
2018-08-07T01:46:09.118Z,937.13
2018-08-07T01:47:09.124Z,937.14
2018-08-07T01:48:09.126Z,937.11
2018-08-07T01:49:09.131Z,937.12
2018-08-07T01:50:09.134Z,937.11
2018-08-07T01:51:09.138Z,937.13
2018-08-07T01:52:09.142Z,937.16
2018-08-07T01:53:09.145Z,937.12
2018-08-07T01:54:09.148Z,937.16
2018-08-07T01:55:09.153Z,937.12
2018-08-07T01:56:09.157Z,937.14
2018-08-07T01:57:09.161Z,937.12
2018-08-07T01:58:09.172Z,937.11
2018-08-07T01:59:09.166Z,937.15
2018-08-07T02:00:09.172Z,937.13
2018-08-07T02:01:09.175Z,937.13
2018-08-07T02:02:09.179Z,937.13
2018-08-07T02:03:09.183Z,937.12
2018-08-07T02:04:09.186Z,937.13
2018-08-07T02:05:09.190Z,937.10
2018-08-07T02:06:09.194Z,937.09
2018-08-07T02:07:09.197Z,937.09
2018-08-07T02:08:09.201Z,937.08
2018-08-07T02:09:09.206Z,937.09
2018-08-07T02:10:09.212Z,937.07
2018-08-07T02:11:09.213Z,937.06
2018-08-07T02:12:09.216Z,937.03
2018-08-07T02:13:09.219Z,937.08
2018-08-07T02:14:09.223Z,937.07
2018-08-07T02:15:09.227Z,937.09
2018-08-07T02:16:09.232Z,937.08
2018-08-07T02:17:09.234Z,937.09
2018-08-07T02:18:09.237Z,937.07
2018-08-07T02:19:09.242Z,937.10
2018-08-07T02:20:09.245Z,937.09
2018-08-07T02:21:09.250Z,937.08
2018-08-07T02:22:09.252Z,937.07
2018-08-07T02:23:42.468Z,937.09
2018-08-07T02:24:09.259Z,937.07
2018-08-07T02:25:09.265Z,937.05
2018-08-07T02:26:09.274Z,937.07
2018-08-07T02:27:09.271Z,937.06
2018-08-07T02:28:09.274Z,937.03
2018-08-07T02:29:09.279Z,937.05
2018-08-07T02:30:09.281Z,937.05
2018-08-07T02:31:09.284Z,937.01
2018-08-07T02:32:09.289Z,937.02
2018-08-07T02:33:09.292Z,937.02
2018-08-07T02:34:09.295Z,937.03
2018-08-07T02:35:09.301Z,937.04
2018-08-07T02:36:09.304Z,937.07
2018-08-07T02:37:09.308Z,937.07
2018-08-07T02:38:09.310Z,937.04
2018-08-07T02:39:09.313Z,937.05
2018-08-07T02:40:09.318Z,937.01
2018-08-07T02:41:09.320Z,937.08
2018-08-07T02:42:09.324Z,937.06
2018-08-07T02:43:09.332Z,937.06
2018-08-07T02:44:09.333Z,937.09
2018-08-07T02:45:09.335Z,937.09
2018-08-07T02:46:09.337Z,937.12
2018-08-07T02:47:09.342Z,937.11
2018-08-07T02:48:09.345Z,937.13
2018-08-07T02:49:09.349Z,937.09
2018-08-07T02:50:09.353Z,937.08
2018-08-07T02:51:09.356Z,937.11
2018-08-07T02:52:09.359Z,937.13
2018-08-07T02:53:09.364Z,937.09
2018-08-07T02:54:09.365Z,937.14
2018-08-07T02:55:09.369Z,937.11
2018-08-07T02:56:09.372Z,937.11
2018-08-07T02:58:09.383Z,937.15
2018-08-07T02:59:09.383Z,937.16
2018-08-07T03:00:09.388Z,937.18
2018-08-07T03:01:09.398Z,937.18
2018-08-07T03:02:09.394Z,937.17
2018-08-07T03:03:09.398Z,937.17
2018-08-07T03:04:09.400Z,937.17
2018-08-07T03:05:09.403Z,937.14
2018-08-07T03:06:09.409Z,937.10
2018-08-07T03:07:09.409Z,937.11
2018-08-07T03:08:09.414Z,937.10
2018-08-07T03:09:09.421Z,937.12
2018-08-07T03:10:09.420Z,937.13
2018-08-07T03:11:09.424Z,937.14
2018-08-07T03:12:09.429Z,937.18
2018-08-07T03:13:09.431Z,937.17
2018-08-07T03:14:09.433Z,937.18
2018-08-07T03:15:09.437Z,937.22
2018-08-07T03:16:09.441Z,937.21
2018-08-07T03:17:09.445Z,937.21
2018-08-07T03:18:09.448Z,937.24
2018-08-07T03:19:09.450Z,937.21
2018-08-07T03:20:09.455Z,937.27
2018-08-07T03:21:09.457Z,937.26
2018-08-07T03:22:09.459Z,937.28
2018-08-07T03:23:09.464Z,937.33
2018-08-07T03:24:09.467Z,937.33
2018-08-07T03:25:09.474Z,937.31
2018-08-07T03:26:09.473Z,937.34
2018-08-07T03:27:09.476Z,937.33
2018-08-07T03:28:09.480Z,937.35
2018-08-07T03:29:09.484Z,937.35
2018-08-07T03:30:09.485Z,937.39
2018-08-07T03:31:09.488Z,937.36
2018-08-07T03:32:09.492Z,937.35
2018-08-07T03:33:09.495Z,937.35
2018-08-07T03:34:09.498Z,937.35
2018-08-07T03:35:09.501Z,937.34
2018-08-07T03:36:09.507Z,937.34
2018-08-07T03:37:09.510Z,937.40
2018-08-07T03:38:09.512Z,937.33
2018-08-07T03:39:09.514Z,937.44
2018-08-07T03:40:09.518Z,937.43
2018-08-07T03:41:09.522Z,937.43
2018-08-07T03:42:09.529Z,937.44
2018-08-07T03:43:09.528Z,937.44
2018-08-07T03:44:09.533Z,937.44
2018-08-07T03:45:09.536Z,937.40
2018-08-07T03:46:09.537Z,937.45
2018-08-07T03:47:09.541Z,937.41
2018-08-07T03:48:09.544Z,937.48
2018-08-07T03:49:09.556Z,937.43
2018-08-07T03:50:09.552Z,937.45
2018-08-07T03:51:09.554Z,937.49
2018-08-07T03:52:09.558Z,937.49
2018-08-07T03:53:09.639Z,937.48
2018-08-07T03:54:09.564Z,937.46
2018-08-07T03:55:09.574Z,937.47
2018-08-07T03:56:09.573Z,937.47
2018-08-07T03:57:09.575Z,937.49
2018-08-07T03:58:09.577Z,937.47
2018-08-07T03:59:09.624Z,937.47
2018-08-07T04:00:09.583Z,937.51
2018-08-07T04:01:09.588Z,937.51
2018-08-07T04:02:09.592Z,937.49
2018-08-07T04:03:09.592Z,937.46
2018-08-07T04:04:09.597Z,937.48
2018-08-07T04:05:09.600Z,937.54
2018-08-07T04:06:09.602Z,937.50
2018-08-07T04:07:09.605Z,937.55
2018-08-07T04:08:09.609Z,937.53
2018-08-07T04:09:09.614Z,937.56
2018-08-07T04:10:09.616Z,937.59
2018-08-07T04:11:09.619Z,937.56
2018-08-07T04:12:09.623Z,937.54
2018-08-07T04:13:09.626Z,937.55
2018-08-07T04:14:09.629Z,937.55
2018-08-07T04:15:09.632Z,937.57
2018-08-07T04:16:09.635Z,937.60
2018-08-07T04:17:09.639Z,937.62
2018-08-07T04:18:09.640Z,937.62
2018-08-07T04:19:09.645Z,937.62
2018-08-07T04:20:09.648Z,937.62
2018-08-07T04:21:09.650Z,937.64
2018-08-07T04:22:09.655Z,937.59
2018-08-07T04:23:09.657Z,937.60
2018-08-07T04:24:09.660Z,937.67
2018-08-07T04:25:09.667Z,937.63
2018-08-07T04:26:09.752Z,937.60
2018-08-07T04:27:09.677Z,937.62
2018-08-07T04:28:09.674Z,937.63
2018-08-07T04:29:09.676Z,937.63
2018-08-07T04:30:09.678Z,937.63
2018-08-07T04:31:09.682Z,937.63
2018-08-07T04:32:09.687Z,937.68
2018-08-07T04:33:09.689Z,937.62
2018-08-07T04:34:09.693Z,937.67
2018-08-07T04:35:09.696Z,937.67
2018-08-07T04:36:09.699Z,937.66
2018-08-07T04:37:09.702Z,937.64
2018-08-07T04:38:09.704Z,937.68
2018-08-07T04:39:09.707Z,937.66
2018-08-07T04:40:09.711Z,937.71
2018-08-07T04:41:09.714Z,937.69
2018-08-07T04:42:09.716Z,937.70
2018-08-07T04:43:09.720Z,937.66
2018-08-07T04:44:09.723Z,937.66
2018-08-07T04:45:09.726Z,937.67
2018-08-07T04:46:09.730Z,937.64
2018-08-07T04:47:09.739Z,937.73
2018-08-07T04:48:09.736Z,937.74
2018-08-07T04:49:09.742Z,937.73
2018-08-07T04:50:09.741Z,937.75
2018-08-07T04:51:09.745Z,937.71
2018-08-07T04:52:09.749Z,937.69
2018-08-07T04:53:09.771Z,937.72
2018-08-07T04:54:09.754Z,937.73
2018-08-07T04:55:09.757Z,937.72
2018-08-07T04:56:09.763Z,937.72
2018-08-07T04:57:09.764Z,937.77
2018-08-07T04:58:09.819Z,937.81
2018-08-07T04:59:09.773Z,937.78
2018-08-07T05:00:09.775Z,937.80
2018-08-07T05:01:09.775Z,937.76
2018-08-07T05:02:09.779Z,937.78
2018-08-07T05:03:09.783Z,937.74
2018-08-07T05:04:09.785Z,937.78
2018-08-07T05:05:09.787Z,937.80
2018-08-07T05:06:09.791Z,937.76
2018-08-07T05:07:09.800Z,937.78
2018-08-07T05:08:09.803Z,937.82
2018-08-07T05:09:09.803Z,937.80
2018-08-07T05:10:09.803Z,937.82
2018-08-07T05:11:09.806Z,937.82
2018-08-07T05:12:09.811Z,937.81
2018-08-07T05:13:09.813Z,937.84
2018-08-07T05:14:09.819Z,937.87
2018-08-07T05:15:09.818Z,937.84
2018-08-07T05:16:09.822Z,937.87
2018-08-07T05:17:09.826Z,937.84
2018-08-07T05:18:09.828Z,937.84
2018-08-07T05:19:09.831Z,937.84
2018-08-07T05:20:09.835Z,937.85
2018-08-07T05:21:09.839Z,937.84
2018-08-07T05:22:09.841Z,937.80
2018-08-07T05:23:09.881Z,937.81
2018-08-07T05:24:09.848Z,937.84
2018-08-07T05:25:09.851Z,937.83
2018-08-07T05:26:09.852Z,937.82
2018-08-07T05:27:09.856Z,937.85
2018-08-07T05:28:09.860Z,937.86
2018-08-07T05:29:09.863Z,937.82
2018-08-07T05:30:09.865Z,937.86
2018-08-07T05:31:09.870Z,937.85
2018-08-07T05:32:09.873Z,937.86
2018-08-07T05:33:09.876Z,937.86
2018-08-07T05:34:09.879Z,937.86
2018-08-07T05:35:09.882Z,937.86
2018-08-07T05:36:09.886Z,937.88
2018-08-07T05:37:09.888Z,937.88
2018-08-07T05:38:09.891Z,937.87
2018-08-07T05:39:09.895Z,937.86
2018-08-07T05:40:09.899Z,937.89
2018-08-07T05:41:09.902Z,937.89
2018-08-07T05:42:09.904Z,937.84
2018-08-07T05:43:09.912Z,937.87
2018-08-07T05:44:09.913Z,937.83
2018-08-07T05:45:09.915Z,937.80
2018-08-07T05:46:09.918Z,937.81
2018-08-07T05:47:09.922Z,937.80
2018-08-07T05:48:09.926Z,937.80
2018-08-07T05:49:09.930Z,937.79
2018-08-07T05:50:10.029Z,937.79
2018-08-07T05:51:10.362Z,937.78
2018-08-07T05:52:09.939Z,937.80
2018-08-07T05:53:09.945Z,937.81
2018-08-07T05:54:09.947Z,937.75
2018-08-07T05:55:09.970Z,937.80
2018-08-07T05:56:09.955Z,937.78
2018-08-07T05:57:09.958Z,937.80
2018-08-07T05:58:09.989Z,937.79
2018-08-07T05:59:09.964Z,937.80
2018-08-07T06:00:09.969Z,937.79
2018-08-07T06:01:09.973Z,937.83
2018-08-07T06:02:09.976Z,937.82
2018-08-07T06:03:09.978Z,937.84
2018-08-07T06:04:09.984Z,937.80
2018-08-07T06:05:09.999Z,937.82
2018-08-07T06:06:09.989Z,937.83
2018-08-07T06:07:09.994Z,937.87
2018-08-07T06:08:09.998Z,937.81
2018-08-07T06:09:10.005Z,937.83
2018-08-07T06:10:10.007Z,937.88
2018-08-07T06:11:10.036Z,937.86
2018-08-07T06:12:10.066Z,937.89
2018-08-07T06:13:10.017Z,937.85
2018-08-07T06:14:10.021Z,937.87
2018-08-07T06:15:10.039Z,937.88
2018-08-07T06:16:10.028Z,937.85
2018-08-07T06:17:10.033Z,937.89
2018-08-07T06:18:10.037Z,937.89
2018-08-07T06:19:10.051Z,937.87
2018-08-07T06:20:10.045Z,937.91
2018-08-07T06:21:10.049Z,937.94
2018-08-07T06:22:10.054Z,937.91
2018-08-07T06:23:10.056Z,937.95
2018-08-07T06:24:10.061Z,937.96
2018-08-07T06:25:10.064Z,937.97
2018-08-07T06:26:10.068Z,937.92
2018-08-07T06:27:10.072Z,937.94
2018-08-07T06:28:10.076Z,937.94
2018-08-07T06:29:10.080Z,937.93
2018-08-07T06:30:10.083Z,937.90
2018-08-07T06:31:10.089Z,937.91
2018-08-07T06:32:10.093Z,937.87
2018-08-07T06:33:10.098Z,937.88
2018-08-07T06:34:10.100Z,937.92
2018-08-07T06:35:10.105Z,937.89
2018-08-07T06:36:10.110Z,937.88
2018-08-07T06:37:10.115Z,937.89
2018-08-07T06:38:10.118Z,937.89
2018-08-07T06:39:10.123Z,937.89
2018-08-07T06:40:10.126Z,937.90
2018-08-07T06:41:10.131Z,937.91
2018-08-07T06:42:10.137Z,937.91
2018-08-07T06:43:10.140Z,937.92
2018-08-07T06:44:10.144Z,937.86
2018-08-07T06:45:10.149Z,937.90
2018-08-07T06:46:10.154Z,937.91
2018-08-07T06:47:10.159Z,937.88
2018-08-07T06:48:10.201Z,937.90
2018-08-07T06:49:10.167Z,937.87
2018-08-07T06:50:10.211Z,937.90
2018-08-07T06:51:10.177Z,937.86
2018-08-07T06:52:10.185Z,937.88
2018-08-07T06:53:10.187Z,937.87
2018-08-07T06:54:10.191Z,937.88
2018-08-07T06:55:10.195Z,937.85
2018-08-07T06:56:10.200Z,937.85
2018-08-07T06:57:10.234Z,937.83
2018-08-07T06:58:10.210Z,937.85
2018-08-07T06:59:10.216Z,937.84
2018-08-07T07:00:10.219Z,937.84
2018-08-07T07:01:10.225Z,937.84
2018-08-07T07:02:10.229Z,937.82
2018-08-07T07:03:10.235Z,937.89
2018-08-07T07:04:10.240Z,937.91
2018-08-07T07:05:10.245Z,937.99
2018-08-07T07:06:10.251Z,938.10
2018-08-07T07:07:10.255Z,938.16
2018-08-07T07:08:10.261Z,938.20
2018-08-07T07:09:10.267Z,938.24
2018-08-07T07:10:10.273Z,938.11
2018-08-07T07:11:10.281Z,938.09
2018-08-07T07:12:10.290Z,938.11
2018-08-07T07:13:10.298Z,938.04
2018-08-07T07:14:10.306Z,938.01
2018-08-07T07:15:10.312Z,938.08
2018-08-07T07:16:10.325Z,938.07
2018-08-07T07:17:10.331Z,938.09
2018-08-07T07:18:10.339Z,938.04
2018-08-07T07:19:10.351Z,937.95
2018-08-07T07:20:10.357Z,937.92
2018-08-07T07:21:10.368Z,937.90
2018-08-07T07:22:10.382Z,937.88
2018-08-07T07:23:10.386Z,937.87
2018-08-07T07:24:10.395Z,937.86
2018-08-07T07:25:10.405Z,937.88
2018-08-07T07:26:10.413Z,937.92
2018-08-07T07:27:10.423Z,937.87
2018-08-07T07:28:10.434Z,937.84
2018-08-07T07:29:10.442Z,937.87
2018-08-07T07:30:10.453Z,937.83
2018-08-07T07:31:10.461Z,937.80
2018-08-07T07:32:10.467Z,937.81
2018-08-07T07:33:10.478Z,937.86
2018-08-07T07:34:10.735Z,937.81
2018-08-07T07:35:10.495Z,937.84
2018-08-07T07:36:10.504Z,937.79
2018-08-07T07:37:10.512Z,937.74
2018-08-07T07:38:10.522Z,937.75
2018-08-07T07:39:10.530Z,937.76
2018-08-07T07:40:10.537Z,937.78
2018-08-07T07:41:10.546Z,937.81
2018-08-07T07:42:10.554Z,937.78
2018-08-07T07:43:10.564Z,937.78
2018-08-07T07:44:10.572Z,937.80
2018-08-07T07:45:10.579Z,937.83
2018-08-07T07:46:10.590Z,937.85
2018-08-07T07:47:10.683Z,937.82
2018-08-07T07:48:10.602Z,937.82
2018-08-07T07:49:10.611Z,937.84
2018-08-07T07:50:10.617Z,937.84
2018-08-07T07:51:10.624Z,937.79
2018-08-07T07:52:10.635Z,937.81
2018-08-07T07:53:10.642Z,937.81
2018-08-07T07:54:10.647Z,937.81
2018-08-07T07:55:11.048Z,937.83
2018-08-07T07:56:10.665Z,937.84
2018-08-07T07:57:10.671Z,937.85
2018-08-07T07:58:10.678Z,937.87
2018-08-07T07:59:10.685Z,937.89
2018-08-07T08:00:10.694Z,937.89
2018-08-07T08:01:10.701Z,937.86
2018-08-07T08:02:10.707Z,937.86
2018-08-07T08:03:10.790Z,937.95
2018-08-07T08:04:10.724Z,937.90
2018-08-07T08:05:10.746Z,937.96
2018-08-07T08:06:10.743Z,937.98
2018-08-07T08:07:10.749Z,937.96
2018-08-07T08:08:10.759Z,937.89
2018-08-07T08:09:10.768Z,937.90
2018-08-07T08:10:10.776Z,937.91
2018-08-07T08:11:10.825Z,937.98
2018-08-07T08:12:10.796Z,938.00
2018-08-07T08:13:10.806Z,937.94
2018-08-07T08:14:10.816Z,937.98
2018-08-07T08:15:10.827Z,937.91
2018-08-07T08:16:10.841Z,937.85
2018-08-07T08:17:10.846Z,937.90
2018-08-07T08:18:10.859Z,937.95
2018-08-07T08:19:10.870Z,937.91
2018-08-07T08:20:10.881Z,937.93
2018-08-07T08:21:10.893Z,937.87
2018-08-07T08:22:10.907Z,937.82
2018-08-07T08:23:10.916Z,937.83
2018-08-07T08:24:10.932Z,937.79
2018-08-07T08:25:10.941Z,937.75
2018-08-07T08:26:10.952Z,937.79
2018-08-07T08:27:10.965Z,937.80
2018-08-07T08:28:10.979Z,937.79
2018-08-07T08:29:11.003Z,937.72
2018-08-07T08:30:11.086Z,937.75
2018-08-07T08:31:11.017Z,937.71
2018-08-07T08:32:11.025Z,937.76
2018-08-07T08:33:11.038Z,937.75
2018-08-07T08:34:11.049Z,937.79
2018-08-07T08:35:11.096Z,937.76
2018-08-07T08:36:11.149Z,937.80
2018-08-07T08:37:11.087Z,937.81
2018-08-07T08:38:11.098Z,937.88
2018-08-07T08:39:11.111Z,937.88
2018-08-07T08:40:11.124Z,937.90
2018-08-07T08:41:11.136Z,937.89
2018-08-07T08:42:11.148Z,937.91
2018-08-07T08:43:11.163Z,937.88
2018-08-07T08:44:11.393Z,937.92
2018-08-07T08:45:11.192Z,937.89
2018-08-07T08:46:11.205Z,937.89
2018-08-07T08:47:11.220Z,937.91
2018-08-07T08:48:11.273Z,937.88
2018-08-07T08:49:11.251Z,937.90
2018-08-07T08:50:11.265Z,937.88
2018-08-07T08:51:11.280Z,937.88
2018-08-07T08:52:11.332Z,937.87
2018-08-07T08:53:11.310Z,937.83
2018-08-07T08:54:11.379Z,937.84
2018-08-07T08:55:11.341Z,937.83
2018-08-07T08:56:11.357Z,937.83
2018-08-07T08:57:11.374Z,937.86
2018-08-07T08:58:11.389Z,937.87
2018-08-07T08:59:11.405Z,937.88
2018-08-07T09:00:11.422Z,937.90
2018-08-07T09:01:11.436Z,937.86
2018-08-07T09:02:11.452Z,937.83
2018-08-07T09:03:11.469Z,937.84
2018-08-07T09:04:11.485Z,937.84
2018-08-07T09:05:11.500Z,937.83
2018-08-07T09:06:11.517Z,937.85
2018-08-07T09:07:11.532Z,937.84
2018-08-07T09:08:11.549Z,937.85
2018-08-07T09:09:11.566Z,937.88
2018-08-07T09:10:11.602Z,937.85
2018-08-07T09:11:11.596Z,937.86
2018-08-07T09:12:11.664Z,937.88
2018-08-07T09:13:11.629Z,937.90
2018-08-07T09:14:11.645Z,937.89
2018-08-07T09:15:11.660Z,937.85
2018-08-07T09:16:11.679Z,937.91
2018-08-07T09:17:11.695Z,937.84
2018-08-07T09:18:12.109Z,937.81
2018-08-07T09:19:11.728Z,937.83
2018-08-07T09:20:11.745Z,937.80
2018-08-07T09:21:11.762Z,937.81
2018-08-07T09:22:11.777Z,937.79
2018-08-07T09:23:11.797Z,937.77
2018-08-07T09:24:11.812Z,937.73
2018-08-07T09:25:11.846Z,937.72
2018-08-07T09:26:11.888Z,937.74
2018-08-07T09:27:11.863Z,937.72
2018-08-07T09:28:11.878Z,937.75
2018-08-07T09:29:11.895Z,937.74
2018-08-07T09:30:11.912Z,937.71
2018-08-07T09:31:11.973Z,937.70
2018-08-07T09:32:11.945Z,937.73
2018-08-07T09:33:11.967Z,937.75
2018-08-07T09:34:11.977Z,937.76
2018-08-07T09:35:11.996Z,937.78
2018-08-07T09:36:12.012Z,937.74
2018-08-07T09:37:12.034Z,937.71
2018-08-07T09:38:12.047Z,937.69
2018-08-07T09:39:12.065Z,937.68
2018-08-07T09:40:12.095Z,937.66
2018-08-07T09:41:12.097Z,937.67
2018-08-07T09:42:12.113Z,937.64
2018-08-07T09:43:12.133Z,937.68
2018-08-07T09:44:12.146Z,937.68
2018-08-07T09:45:12.166Z,937.68
2018-08-07T09:46:12.179Z,937.68
2018-08-07T09:47:12.194Z,937.68
2018-08-07T09:48:12.212Z,937.64
2018-08-07T09:49:12.227Z,937.60
2018-08-07T09:50:12.242Z,937.68
2018-08-07T09:51:12.262Z,937.62
2018-08-07T09:52:12.278Z,937.56
2018-08-07T09:53:12.291Z,937.63
2018-08-07T09:54:12.307Z,937.67
2018-08-07T09:55:12.320Z,937.66
2018-08-07T09:56:12.342Z,937.62
2018-08-07T09:57:12.359Z,937.62
2018-08-07T09:58:12.371Z,937.60
2018-08-07T09:59:12.384Z,937.58
2018-08-07T10:00:12.608Z,937.58
2018-08-07T10:01:12.416Z,937.61
2018-08-07T10:02:12.432Z,937.60
2018-08-07T10:03:12.450Z,937.53
2018-08-07T10:04:12.464Z,937.53
2018-08-07T10:05:12.505Z,937.51
2018-08-07T10:06:12.492Z,937.52
2018-08-07T10:07:12.511Z,937.50
2018-08-07T10:08:12.523Z,937.49
2018-08-07T10:09:12.564Z,937.48
2018-08-07T10:10:12.856Z,937.46
2018-08-07T10:11:12.648Z,937.47
2018-08-07T10:12:12.619Z,937.47
2018-08-07T10:13:12.595Z,937.48
2018-08-07T10:14:12.607Z,937.52
2018-08-07T10:15:12.623Z,937.49
2018-08-07T10:16:12.655Z,937.46
2018-08-07T10:17:12.648Z,937.50
2018-08-07T10:18:12.902Z,937.50
2018-08-07T10:19:12.822Z,937.48
2018-08-07T10:20:13.169Z,937.44
2018-08-07T10:21:12.897Z,937.44
2018-08-07T10:22:12.714Z,937.43
2018-08-07T10:23:12.778Z,937.42
2018-08-07T10:24:12.740Z,937.38
2018-08-07T10:25:12.753Z,937.40
2018-08-07T10:26:12.764Z,937.40
2018-08-07T10:27:12.776Z,937.40
2018-08-07T10:28:12.788Z,937.41
2018-08-07T10:29:12.862Z,937.38
2018-08-07T10:30:12.812Z,937.39
2018-08-07T10:31:12.824Z,937.36
2018-08-07T10:32:12.844Z,937.36
2018-08-07T10:33:12.852Z,937.38
2018-08-07T10:34:12.857Z,937.35
2018-08-07T10:35:12.871Z,937.36
2018-08-07T10:36:12.879Z,937.34
2018-08-07T10:37:13.184Z,937.32
2018-08-07T10:38:12.900Z,937.28
2018-08-07T10:39:13.207Z,937.31
2018-08-07T10:40:13.082Z,937.29
2018-08-07T10:41:13.104Z,937.29
2018-08-07T10:42:12.942Z,937.27
2018-08-07T10:43:13.040Z,937.32
2018-08-07T10:44:12.967Z,937.33
2018-08-07T10:45:12.971Z,937.35
2018-08-07T10:46:12.983Z,937.34
2018-08-07T10:47:12.991Z,937.33
2018-08-07T10:48:13.002Z,937.37
2018-08-07T10:49:13.012Z,937.32
2018-08-07T10:50:13.024Z,937.29
2018-08-07T10:51:13.030Z,937.27
2018-08-07T10:52:13.055Z,937.31
2018-08-07T10:53:13.053Z,937.29
2018-08-07T10:54:13.059Z,937.30
2018-08-07T10:55:13.070Z,937.31
2018-08-07T10:56:13.077Z,937.31
2018-08-07T10:57:13.089Z,937.27
2018-08-07T10:58:13.131Z,937.28
2018-08-07T10:59:13.128Z,937.30
2018-08-07T11:00:13.115Z,937.29
2018-08-07T11:01:13.123Z,937.28
2018-08-07T11:02:13.133Z,937.32
2018-08-07T11:03:13.142Z,937.30
2018-08-07T11:04:13.150Z,937.32
2018-08-07T11:05:13.160Z,937.34
2018-08-07T11:06:13.169Z,937.33
2018-08-07T11:07:13.180Z,937.34
2018-08-07T11:08:13.190Z,937.35
2018-08-07T11:09:13.199Z,937.37
2018-08-07T11:10:13.333Z,937.38
2018-08-07T11:11:13.560Z,937.37
2018-08-07T11:12:13.229Z,937.40
2018-08-07T11:13:13.240Z,937.40
2018-08-07T11:14:13.250Z,937.38
2018-08-07T11:15:13.262Z,937.32
2018-08-07T11:16:13.276Z,937.30
2018-08-07T11:17:13.285Z,937.31
2018-08-07T11:18:13.296Z,937.32
2018-08-07T11:19:13.312Z,937.35
2018-08-07T11:20:13.321Z,937.36
2018-08-07T11:21:13.391Z,937.35
2018-08-07T11:22:13.343Z,937.31
2018-08-07T11:23:13.356Z,937.26
2018-08-07T11:24:13.367Z,937.22
2018-08-07T11:25:13.380Z,937.16
2018-08-07T11:26:13.391Z,937.18
2018-08-07T11:27:13.425Z,937.23
2018-08-07T11:28:13.419Z,937.23
2018-08-07T11:29:13.426Z,937.17
2018-08-07T11:30:13.438Z,937.21
2018-08-07T11:31:13.474Z,937.18
2018-08-07T11:32:13.499Z,937.18
2018-08-07T11:33:13.476Z,937.17
2018-08-07T11:34:13.483Z,937.17
2018-08-07T11:35:13.494Z,937.10
2018-08-07T11:36:13.505Z,937.13
2018-08-07T11:37:13.563Z,937.12
2018-08-07T11:38:13.525Z,937.10
2018-08-07T11:39:13.535Z,937.10
2018-08-07T11:40:13.547Z,937.09
2018-08-07T11:41:13.597Z,937.11
2018-08-07T11:42:13.599Z,937.09
2018-08-07T11:43:13.577Z,937.09
2018-08-07T11:44:13.587Z,937.06
2018-08-07T11:45:13.597Z,937.03
2018-08-07T11:46:13.606Z,937.12
2018-08-07T11:47:13.616Z,937.11
2018-08-07T11:48:13.654Z,937.12
2018-08-07T11:49:13.637Z,937.09
2018-08-07T11:50:13.644Z,937.08
2018-08-07T11:51:13.655Z,937.09
2018-08-07T11:52:13.665Z,937.07
2018-08-07T11:53:13.678Z,937.04
2018-08-07T11:54:13.686Z,937.11
2018-08-07T11:55:13.693Z,937.14
2018-08-07T11:56:13.743Z,937.08
2018-08-07T11:57:13.711Z,937.04
2018-08-07T11:58:13.718Z,937.05
2018-08-07T11:59:13.729Z,937.09
2018-08-07T12:00:13.739Z,937.08
2018-08-07T12:01:13.746Z,937.07
2018-08-07T12:02:14.646Z,937.07
2018-08-07T12:03:13.767Z,937.11
2018-08-07T12:04:13.773Z,937.06
2018-08-07T12:05:13.963Z,937.07
2018-08-07T12:06:13.793Z,937.07
2018-08-07T12:07:13.800Z,937.06
2018-08-07T12:08:13.808Z,937.09
2018-08-07T12:09:14.021Z,937.11
2018-08-07T12:10:14.199Z,937.05
2018-08-07T12:11:13.837Z,937.09
2018-08-07T12:12:14.015Z,937.02
2018-08-07T12:13:14.048Z,937.02
2018-08-07T12:14:13.868Z,937.00
2018-08-07T12:15:13.879Z,937.00
2018-08-07T12:16:13.940Z,936.98
2018-08-07T12:17:13.894Z,936.98
2018-08-07T12:18:14.335Z,936.96
2018-08-07T12:19:14.132Z,936.95
2018-08-07T12:20:14.333Z,936.97
2018-08-07T12:21:13.933Z,936.94
2018-08-07T12:22:13.942Z,936.94
2018-08-07T12:23:13.952Z,936.95
2018-08-07T12:24:13.962Z,936.96
2018-08-07T12:25:13.971Z,936.98
2018-08-07T12:26:13.980Z,936.95
2018-08-07T12:27:13.989Z,936.94
2018-08-07T12:28:14.000Z,936.95
2018-08-07T12:29:14.010Z,936.96